Time;durP1;ratioP1;P1;durP2;ratioP2;P2;SDS_P1;SDS_P2;PMS_P1;PMS_P2;Temp;Humidity;BMP_temperature;BMP_pressure;BME280_temperature;BME280_humidity;BME280_pressure;Samples;Min_cycle;Max_cycle;Signal;HPM_P1;HPM_P2
2021/01/05 00:01:17;;;;;;;;;;;;;;;-0.52;100.00;101071.50;5112866;28;19928;-71
2021/01/05 00:03:42;;;;;;;;;;;;;;;-0.52;100.00;101066.16;5113241;28;19931;-71
2021/01/05 00:06:08;;;;;;;;;;;;;;;-0.52;100.00;101060.84;5111528;28;19931;-71
2021/01/05 00:08:34;;;;;;;;;;;;;;;-0.53;100.00;101068.88;5112857;28;20073;-71
2021/01/05 00:11:01;;;;;;;;;;;;;;;-0.51;100.00;101067.03;5112559;28;19924;-71
2021/01/05 00:13:26;;;;;;;;;;;;;;;-0.52;100.00;101071.50;5112799;28;20360;-71
2021/01/05 00:15:52;;;;;;;;;;;;;;;-0.51;100.00;101057.25;5112622;28;19924;-71
2021/01/05 00:18:18;;;;;;;;;;;;;;;-0.50;100.00;101058.13;5112772;28;19927;-71
2021/01/05 00:20:44;;;;;;;;;;;;;;;-0.51;100.00;101056.38;5112507;28;19939;-71
2021/01/05 00:23:09;;;;;;;;;;;;;;;-0.51;100.00;101067.03;5112550;28;19924;-71
2021/01/05 00:25:35;;;;;;;;;;;;;;;-0.52;100.00;101055.50;5112365;28;19927;-71
2021/01/05 00:28:02;;;;;;;;;;;;;;;-0.50;100.00;101068.78;5112390;28;19953;-71
2021/01/05 00:30:28;;;;;;;;;;;;;;;-0.51;100.00;101062.59;5112044;28;19963;-71
2021/01/05 00:32:55;;;;;;;;;;;;;;;-0.52;100.00;101067.97;5112586;28;19935;-71
2021/01/05 00:35:22;;;;;;;;;;;;;;;-0.51;100.00;101077.69;5112549;28;20312;-71
2021/01/05 00:37:48;;;;;;;;;;;;;;;-0.49;100.00;101074.97;5112354;28;20014;-71
2021/01/05 00:40:14;;;;;;;;;;;;;;;-0.49;100.00;101070.53;5112207;28;20019;-71
2021/01/05 00:42:41;;;;;;;;;;;;;;;-0.47;100.00;101078.50;5111638;28;21093;-71
2021/01/05 00:45:09;;;;;;;;;;;;;;;-0.47;100.00;101075.81;5112158;28;19923;-71
2021/01/05 00:47:35;;;;;;;;;;;;;;;-0.47;100.00;101078.50;5112011;28;20412;-71
2021/01/05 00:50:02;;;;;;;;;;;;;;;-0.49;100.00;101075.88;5112277;28;19924;-71
2021/01/05 00:52:29;;;;;;;;;;;;;;;-0.47;100.00;101087.34;5111201;28;19949;-70
2021/01/05 00:54:54;;;;;;;;;;;;;;;-0.47;100.00;101089.16;5111224;28;19979;-70
2021/01/05 00:57:20;;;;;;;;;;;;;;;-0.46;100.00;101081.09;5110862;28;19928;-70
2021/01/05 00:59:49;;;;;;;;;;;;;;;-0.46;100.00;101080.25;5111149;28;19967;-72
2021/01/05 01:02:16;;;;;;;;;;;;;;;-0.41;100.00;101083.66;5110804;28;19924;-73
2021/01/05 01:04:46;;;;;;;;;;;;;;;-0.44;100.00;101087.28;5112174;28;19924;-72
2021/01/05 01:07:11;;;;;;;;;;;;;;;-0.44;100.00;101078.38;5111945;28;19935;-72
2021/01/05 01:09:38;;;;;;;;;;;;;;;-0.42;100.00;101081.91;5111078;28;20027;-73
2021/01/05 01:12:06;;;;;;;;;;;;;;;-0.42;100.00;101087.22;5110981;28;19924;-73
2021/01/05 01:14:36;;;;;;;;;;;;;;;-0.43;100.00;101093.47;5110999;28;19923;-72
2021/01/05 01:17:04;;;;;;;;;;;;;;;-0.42;100.00;101089.91;5110640;28;19928;-72
2021/01/05 01:19:30;;;;;;;;;;;;;;;-0.40;100.00;101086.28;5111949;28;19931;-72
2021/01/05 01:21:56;;;;;;;;;;;;;;;-0.42;100.00;101095.25;5110544;28;19963;-72
2021/01/05 01:24:24;;;;;;;;;;;;;;;-0.41;100.00;101091.66;5110759;28;20052;-73
2021/01/05 01:26:50;;;;;;;;;;;;;;;-0.42;100.00;101097.91;5110524;28;20321;-72
2021/01/05 01:29:17;;;;;;;;;;;;;;;-0.44;100.00;101091.72;5110721;28;19943;-72
2021/01/05 01:31:46;;;;;;;;;;;;;;;-0.43;100.00;101098.81;5110759;28;19931;-72
2021/01/05 01:34:12;;;;;;;;;;;;;;;-0.45;100.00;101098.00;5110850;28;19931;-72
2021/01/05 01:36:39;;;;;;;;;;;;;;;-0.44;100.00;101100.63;5111676;28;19923;-73
2021/01/05 01:39:05;;;;;;;;;;;;;;;-0.46;100.00;101099.78;5110432;28;19924;-72
2021/01/05 01:41:32;;;;;;;;;;;;;;;-0.44;100.00;101110.41;5110328;28;20030;-72
2021/01/05 01:43:59;;;;;;;;;;;;;;;-0.41;100.00;101099.66;5114030;28;19923;-72
2021/01/05 01:46:29;;;;;;;;;;;;;;;-0.43;100.00;101101.50;5115375;28;19924;-72
2021/01/05 01:48:55;;;;;;;;;;;;;;;-0.44;100.00;101091.72;5114077;28;19923;-72
2021/01/05 01:51:22;;;;;;;;;;;;;;;-0.46;100.00;101096.25;5114213;28;20385;-73
2021/01/05 01:54:08;;;;;;;;;;;;;;;-0.44;100.00;101102.41;5114541;28;20407;-72
2021/01/05 01:56:47;;;;;;;;;;;;;;;-0.44;100.00;101094.41;5114120;28;20377;-74
2021/01/05 01:59:24;;;;;;;;;;;;;;;-0.43;100.00;101094.34;5113957;28;19977;-72
2021/01/05 02:01:57;;;;;;;;;;;;;;;-0.45;100.00;101087.34;5114210;28;19976;-72
2021/01/05 02:04:41;;;;;;;;;;;;;;;-0.44;100.00;101086.41;5114189;28;19980;-72
2021/01/05 02:07:17;;;;;;;;;;;;;;;-0.45;100.00;101082.00;5115137;28;19931;-72
2021/01/05 02:09:50;;;;;;;;;;;;;;;-0.45;100.00;101085.53;5096920;28;20379;-72
2021/01/05 02:12:22;;;;;;;;;;;;;;;-0.44;100.00;101083.72;5113983;28;20525;-73
2021/01/05 02:14:53;;;;;;;;;;;;;;;-0.43;100.00;101078.34;5113955;28;19949;-72
2021/01/05 02:17:38;;;;;;;;;;;;;;;-0.44;100.00;101084.63;5114589;28;19931;-72
2021/01/05 02:20:09;;;;;;;;;;;;;;;-0.43;100.00;101075.66;5113703;28;19967;-72
2021/01/05 02:22:41;;;;;;;;;;;;;;;-0.39;100.00;101087.13;5113709;28;19924;-72
2021/01/05 02:25:15;;;;;;;;;;;;;;;-0.42;100.00;101081.91;5113699;28;19924;-72
2021/01/05 02:27:48;;;;;;;;;;;;;;;-0.41;100.00;101076.50;5114741;28;19928;-72
2021/01/05 02:30:18;;;;;;;;;;;;;;;-0.42;100.00;101066.75;5114725;28;20320;-72
2021/01/05 02:32:49;;;;;;;;;;;;;;;-0.41;100.00;101073.00;5114783;28;19931;-72
2021/01/05 02:35:35;;;;;;;;;;;;;;;-0.41;100.00;101065.84;5113573;28;19923;-72
2021/01/05 02:38:30;;;;;;;;;;;;;;;-0.41;100.00;101067.66;5114234;28;19924;-72
2021/01/05 02:41:23;;;;;;;;;;;;;;;-0.44;100.00;101065.94;5114499;28;19923;-72
2021/01/05 02:44:31;;;;;;;;;;;;;;;-0.42;100.00;101058.75;5072114;28;19928;-72
2021/01/05 02:47:24;;;;;;;;;;;;;;;-0.40;100.00;101056.03;5112708;28;20306;-72
2021/01/05 02:50:26;;;;;;;;;;;;;;;-0.41;100.00;101060.50;5058677;28;19924;-72
2021/01/05 02:53:29;;;;;;;;;;;;;;;-0.42;100.00;101064.09;5114313;28;19930;-72
2021/01/05 02:56:28;;;;;;;;;;;;;;;-0.42;100.00;101061.41;5113857;28;19963;-72
2021/01/05 02:59:39;;;;;;;;;;;;;;;-0.41;100.00;101059.66;5114407;28;19930;-72
2021/01/05 03:02:34;;;;;;;;;;;;;;;-0.42;100.00;101063.22;5114091;28;19991;-72
2021/01/05 03:05:19;;;;;;;;;;;;;;;-0.44;100.00;101065.06;5114073;28;19924;-72
2021/01/05 03:08:03;;;;;;;;;;;;;;;-0.45;100.00;101074.88;5114037;28;19923;-72
2021/01/05 03:10:54;;;;;;;;;;;;;;;-0.47;100.00;101074.03;5113996;28;20012;-72
2021/01/05 03:13:48;;;;;;;;;;;;;;;-0.44;100.00;101063.28;5113612;28;19976;-72
2021/01/05 03:16:37;;;;;;;;;;;;;;;-0.45;100.00;101055.34;5113618;28;19928;-72
2021/01/05 03:19:26;;;;;;;;;;;;;;;-0.46;100.00;101046.44;5113823;28;20391;-72
2021/01/05 03:22:12;;;;;;;;;;;;;;;-0.44;100.00;101046.38;5113720;28;19947;-71
2021/01/05 03:24:58;;;;;;;;;;;;;;;-0.44;100.00;101046.38;5113681;28;19927;-72
2021/01/05 03:28:01;;;;;;;;;;;;;;;-0.43;100.00;101045.47;5050799;28;20011;-72
2021/01/05 03:30:47;;;;;;;;;;;;;;;-0.44;100.00;101041.94;5108868;28;19943;-72
2021/01/05 03:33:32;;;;;;;;;;;;;;;-0.43;100.00;101042.81;5113491;28;19946;-72
2021/01/05 03:36:16;;;;;;;;;;;;;;;-0.43;100.00;101040.13;5113228;28;19931;-72
2021/01/05 03:39:01;;;;;;;;;;;;;;;-0.42;100.00;101047.22;5113328;28;19931;-72
2021/01/05 03:41:46;;;;;;;;;;;;;;;-0.41;100.00;101048.97;5113290;28;20442;-72
2021/01/05 03:44:30;;;;;;;;;;;;;;;-0.43;100.00;101045.47;5113334;28;20053;-72
2021/01/05 03:47:14;;;;;;;;;;;;;;;-0.44;100.00;101039.28;5113068;28;19941;-72
2021/01/05 03:49:59;;;;;;;;;;;;;;;-0.41;100.00;101046.31;5113175;28;20022;-72
2021/01/05 03:52:44;;;;;;;;;;;;;;;-0.42;100.00;101044.56;5112631;28;19927;-72
2021/01/05 03:55:29;;;;;;;;;;;;;;;-0.42;100.00;101044.56;5113162;28;20445;-72
2021/01/05 03:58:14;;;;;;;;;;;;;;;-0.44;100.00;101047.28;5113089;28;19931;-72
2021/01/05 04:00:58;;;;;;;;;;;;;;;-0.41;100.00;101047.16;5112926;28;20091;-72
2021/01/05 04:03:24;;;;;;;;;;;;;;;-0.39;100.00;101044.44;5112014;28;20617;-72
2021/01/05 04:05:50;;;;;;;;;;;;;;;-0.41;100.00;101047.16;5112210;28;19931;-72
2021/01/05 04:08:16;;;;;;;;;;;;;;;-0.39;100.00;101042.69;5112560;28;19924;-72
2021/01/05 04:10:42;;;;;;;;;;;;;;;-0.39;100.00;101039.13;5112806;28;19923;-72
2021/01/05 04:13:08;;;;;;;;;;;;;;;-0.37;100.00;101047.97;5112793;28;20396;-72
2021/01/05 04:15:34;;;;;;;;;;;;;;;-0.35;100.00;101036.31;5112490;28;20335;-72
2021/01/05 04:18:00;;;;;;;;;;;;;;;-0.37;100.00;101042.63;5112817;28;19923;-72
2021/01/05 04:20:27;;;;;;;;;;;;;;;-0.37;100.00;101043.50;5112675;28;20316;-72
2021/01/05 04:22:53;;;;;;;;;;;;;;;-0.36;100.00;101047.03;5112497;28;19970;-72
2021/01/05 04:25:20;;;;;;;;;;;;;;;-0.35;100.00;101054.09;5112384;28;19963;-72
2021/01/05 04:27:46;;;;;;;;;;;;;;;-0.35;100.00;101056.78;5112400;28;20313;-72
2021/01/05 04:30:17;;;;;;;;;;;;;;;-0.35;100.00;101059.44;5112593;28;19924;-72
2021/01/05 04:32:43;;;;;;;;;;;;;;;-0.36;100.00;101047.03;5112798;28;20391;-72
2021/01/05 04:35:09;;;;;;;;;;;;;;;-0.36;100.00;101044.34;5111296;28;19923;-72
2021/01/05 04:37:35;;;;;;;;;;;;;;;-0.36;100.00;101039.00;5110965;28;19927;-72
2021/01/05 04:40:02;;;;;;;;;;;;;;;-0.35;100.00;101051.44;5112154;28;19930;-72
2021/01/05 04:42:32;;;;;;;;;;;;;;;-0.34;100.00;101053.19;5112287;28;19963;-72
2021/01/05 04:45:01;;;;;;;;;;;;;;;-0.34;100.00;101055.88;5112374;28;19958;-72
2021/01/05 04:47:32;;;;;;;;;;;;;;;-0.33;100.00;101054.94;5112104;28;20092;-72
2021/01/05 04:50:09;;;;;;;;;;;;;;;-0.32;100.00;101062.03;5111103;28;19930;-72
2021/01/05 04:52:39;;;;;;;;;;;;;;;-0.31;100.00;101053.09;5112325;28;19969;-72
2021/01/05 04:55:14;;;;;;;;;;;;;;;-0.32;100.00;101056.69;5111276;28;19963;-72
2021/01/05 04:57:41;;;;;;;;;;;;;;;-0.31;100.00;101055.75;5112204;28;20006;-72
2021/01/05 05:00:16;;;;;;;;;;;;;;;-0.29;100.00;101058.41;5112032;28;20187;-71
2021/01/05 05:02:47;;;;;;;;;;;;;;;-0.30;100.00;101052.19;5112164;28;19928;-72
2021/01/05 05:05:25;;;;;;;;;;;;;;;-0.30;100.00;101049.50;5112235;28;19962;-70
2021/01/05 05:07:55;;;;;;;;;;;;;;;-0.29;100.00;101061.94;5111996;28;20411;-72
2021/01/05 05:10:26;;;;;;;;;;;;;;;-0.29;100.00;101056.59;5112155;28;20005;-70
2021/01/05 05:12:56;;;;;;;;;;;;;;;-0.29;100.00;101050.41;5112261;28;19974;-72
2021/01/05 05:15:43;;;;;;;;;;;;;;;-0.29;100.00;101045.94;5110904;28;19955;-73
2021/01/05 05:18:19;;;;;;;;;;;;;;;-0.26;100.00;101047.63;5110626;28;19976;-72
2021/01/05 05:21:01;;;;;;;;;;;;;;;-0.27;100.00;101043.19;5115854;28;19924;-72
2021/01/05 05:23:56;;;;;;;;;;;;;;;-0.29;100.00;101045.94;5116144;28;20341;-73
2021/01/05 05:26:26;;;;;;;;;;;;;;;-0.28;100.00;101047.69;5052713;28;20394;-72
2021/01/05 05:28:54;;;;;;;;;;;;;;;-0.26;100.00;101045.81;5102267;28;19974;-71
2021/01/05 05:31:22;;;;;;;;;;;;;;;-0.28;100.00;101041.44;5115879;28;19931;-69
2021/01/05 05:33:49;;;;;;;;;;;;;;;-0.28;100.00;101037.00;5115870;28;19966;-70
2021/01/05 05:36:33;;;;;;;;;;;;;;;-0.26;100.00;101040.47;5115338;28;20473;-67
2021/01/05 05:39:08;;;;;;;;;;;;;;;-0.25;100.00;101039.56;5105242;28;19971;-66
2021/01/05 05:41:42;;;;;;;;;;;;;;;-0.25;100.00;101042.25;5110132;28;20345;-66
2021/01/05 05:44:17;;;;;;;;;;;;;;;-0.25;100.00;101036.91;5095272;28;20401;-66
2021/01/05 05:46:45;;;;;;;;;;;;;;;-0.23;100.00;101034.19;5103341;28;20007;-67
2021/01/05 05:49:19;;;;;;;;;;;;;;;-0.24;100.00;101036.00;5110465;28;20026;-66
2021/01/05 05:51:49;;;;;;;;;;;;;;;-0.24;100.00;101037.75;5112321;28;19959;-67
2021/01/05 05:54:16;;;;;;;;;;;;;;;-0.25;100.00;101039.56;5094748;28;20051;-66
2021/01/05 05:56:49;;;;;;;;;;;;;;;-0.26;100.00;101035.16;5095101;28;19928;-66
2021/01/05 05:59:16;;;;;;;;;;;;;;;-0.27;100.00;101038.72;5094782;28;19956;-67
2021/01/05 06:01:42;;;;;;;;;;;;;;;-0.24;100.00;101037.75;5095015;28;20032;-67
2021/01/05 06:04:08;;;;;;;;;;;;;;;-0.26;100.00;101040.47;5094805;28;19924;-66
2021/01/05 06:06:35;;;;;;;;;;;;;;;-0.26;100.00;101044.97;5107160;28;19953;-66
2021/01/05 06:09:01;;;;;;;;;;;;;;;-0.26;100.00;101045.81;5094873;28;19970;-66
2021/01/05 06:11:27;;;;;;;;;;;;;;;-0.25;100.00;101052.06;5101297;28;20304;-66
2021/01/05 06:13:53;;;;;;;;;;;;;;;-0.25;100.00;101049.38;5113671;28;19977;-66
2021/01/05 06:16:19;;;;;;;;;;;;;;;-0.25;100.00;101047.56;5111978;28;20368;-66
2021/01/05 06:18:45;;;;;;;;;;;;;;;-0.25;100.00;101055.59;5114004;28;19927;-66
2021/01/05 06:21:11;;;;;;;;;;;;;;;-0.27;100.00;101057.41;5112695;28;19970;-66
2021/01/05 06:23:37;;;;;;;;;;;;;;;-0.24;100.00;101053.78;5099446;28;19928;-66
2021/01/05 06:26:02;;;;;;;;;;;;;;;-0.25;100.00;101052.91;5097093;28;19931;-66
2021/01/05 06:28:28;;;;;;;;;;;;;;;-0.25;100.00;101060.06;5093654;28;19924;-66
2021/01/05 06:30:55;;;;;;;;;;;;;;;-0.25;100.00;101060.91;5094410;28;19924;-66
2021/01/05 06:33:20;;;;;;;;;;;;;;;-0.24;100.00;101054.66;5094367;28;20035;-66
2021/01/05 06:35:46;;;;;;;;;;;;;;;-0.24;100.00;101048.44;5104927;28;19979;-66
2021/01/05 06:38:12;;;;;;;;;;;;;;;-0.22;100.00;101058.16;5107358;28;19964;-66
2021/01/05 06:40:38;;;;;;;;;;;;;;;-0.23;100.00;101051.09;5094121;28;19924;-67
2021/01/05 06:43:05;;;;;;;;;;;;;;;-0.23;100.00;101052.84;5112612;28;19931;-66
2021/01/05 06:45:33;;;;;;;;;;;;;;;-0.23;100.00;101045.75;5112572;28;19924;-68
2021/01/05 06:48:00;;;;;;;;;;;;;;;-0.24;100.00;101054.66;5100388;28;20055;-67
2021/01/05 06:50:27;;;;;;;;;;;;;;;-0.24;100.00;101054.66;5106845;28;19923;-67
2021/01/05 06:52:53;;;;;;;;;;;;;;;-0.23;100.00;101060.88;5110337;28;20306;-69
2021/01/05 06:55:19;;;;;;;;;;;;;;;-0.24;100.00;101054.66;5114109;28;19924;-68
2021/01/05 06:57:45;;;;;;;;;;;;;;;-0.22;100.00;101052.81;5113506;28;20404;-68
2021/01/05 07:00:13;;;;;;;;;;;;;;;-0.21;100.00;101054.56;5114007;28;19924;-67
2021/01/05 07:02:39;;;;;;;;;;;;;;;-0.20;100.00;101050.09;5097159;28;20350;-67
2021/01/05 07:05:07;;;;;;;;;;;;;;;-0.23;100.00;101053.75;5106066;28;19935;-67
2021/01/05 07:07:33;;;;;;;;;;;;;;;-0.23;100.00;101053.75;5103947;28;19970;-67
2021/01/05 07:09:59;;;;;;;;;;;;;;;-0.21;100.00;101059.03;5113952;28;19924;-67
2021/01/05 07:12:24;;;;;;;;;;;;;;;-0.21;100.00;101053.69;5109828;28;20030;-67
2021/01/05 07:14:50;;;;;;;;;;;;;;;-0.23;100.00;101061.75;5113946;28;19924;-67
2021/01/05 07:17:16;;;;;;;;;;;;;;;-0.20;100.00;101056.31;5102631;28;19928;-66
2021/01/05 07:19:42;;;;;;;;;;;;;;;-0.20;100.00;101058.09;5095938;28;20416;-66
2021/01/05 07:22:08;;;;;;;;;;;;;;;-0.20;100.00;101058.97;5104549;28;19924;-66
2021/01/05 07:24:35;;;;;;;;;;;;;;;-0.20;100.00;101060.75;5112810;28;19934;-66
2021/01/05 07:27:01;;;;;;;;;;;;;;;-0.17;100.00;101058.88;5113130;28;20011;-66
2021/01/05 07:29:27;;;;;;;;;;;;;;;-0.16;100.00;101054.44;5111788;28;19923;-66
2021/01/05 07:31:53;;;;;;;;;;;;;;;-0.18;100.00;101059.78;5111702;28;19924;-66
2021/01/05 07:34:18;;;;;;;;;;;;;;;-0.18;100.00;101058.94;5111697;28;19924;-66
2021/01/05 07:36:47;;;;;;;;;;;;;;;-0.15;100.00;101055.28;5093946;28;19924;-66
2021/01/05 07:39:17;;;;;;;;;;;;;;;-0.14;100.00;101051.72;5094784;28;20001;-66
2021/01/05 07:41:43;;;;;;;;;;;;;;;-0.14;100.00;101057.06;5099145;28;20023;-65
2021/01/05 07:44:09;;;;;;;;;;;;;;;-0.11;100.00;101055.13;5096474;28;20005;-65
2021/01/05 07:46:35;;;;;;;;;;;;;;;-0.10;100.00;101061.38;5104766;28;19924;-66
2021/01/05 07:49:01;;;;;;;;;;;;;;;-0.09;100.00;101060.44;5109711;28;20313;-66
2021/01/05 07:51:26;;;;;;;;;;;;;;;-0.09;100.00;101060.44;5112103;28;19931;-66
2021/01/05 07:53:52;;;;;;;;;;;;;;;-0.09;100.00;101061.31;5112939;28;20397;-66
2021/01/05 07:56:19;;;;;;;;;;;;;;;-0.08;100.00;101055.06;5094446;28;19935;-66
2021/01/05 07:58:44;;;;;;;;;;;;;;;-0.07;100.00;101056.78;5105429;28;19980;-66
2021/01/05 08:01:10;;;;;;;;;;;;;;;-0.05;100.00;101051.44;5110353;28;20317;-66
2021/01/05 08:03:36;;;;;;;;;;;;;;;-0.03;100.00;101047.78;5107415;28;19928;-66
2021/01/05 08:06:04;;;;;;;;;;;;;;;-0.02;100.00;101049.50;5098716;28;19928;-66
2021/01/05 08:08:29;;;;;;;;;;;;;;;-0.05;100.00;101054.09;5093421;28;20336;-66
2021/01/05 08:10:55;;;;;;;;;;;;;;;-0.03;100.00;101057.56;5092487;28;19981;-66
2021/01/05 08:13:22;;;;;;;;;;;;;;;-0.03;100.00;101052.22;5093565;28;19930;-66
2021/01/05 08:15:48;;;;;;;;;;;;;;;-0.03;100.00;101053.13;5105440;28;19977;-66
2021/01/05 08:18:14;;;;;;;;;;;;;;;-0.02;100.00;101053.97;5094422;28;19924;-66
2021/01/05 08:20:40;;;;;;;;;;;;;;;-0.02;100.00;101056.66;5096322;28;19930;-66
2021/01/05 08:23:05;;;;;;;;;;;;;;;-0.03;100.00;101052.22;5111946;28;19935;-66
2021/01/05 08:25:32;;;;;;;;;;;;;;;-0.01;100.00;101053.94;5111355;28;19928;-66
2021/01/05 08:27:58;;;;;;;;;;;;;;;0.02;100.00;101052.09;5112538;28;19959;-66
2021/01/05 08:30:26;;;;;;;;;;;;;;;0.06;100.00;101051.94;5098742;28;19923;-66
2021/01/05 08:32:53;;;;;;;;;;;;;;;0.02;100.00;101058.31;5112481;28;19969;-66
2021/01/05 08:35:20;;;;;;;;;;;;;;;0.03;100.00;101072.50;5110985;28;19932;-65
2021/01/05 08:37:46;;;;;;;;;;;;;;;0.01;100.00;101059.22;5109753;28;19974;-67
2021/01/05 08:40:13;;;;;;;;;;;;;;;0.03;100.00;101065.41;5104479;28;19923;-67
2021/01/05 08:42:39;;;;;;;;;;;;;;;0.03;100.00;101073.41;5098348;28;19966;-67
2021/01/05 08:45:06;;;;;;;;;;;;;;;0.05;100.00;101063.53;5100525;28;20116;-67
2021/01/05 08:47:32;;;;;;;;;;;;;;;0.08;100.00;101074.13;5108805;28;19982;-67
2021/01/05 08:49:58;;;;;;;;;;;;;;;0.08;100.00;101074.13;5093659;28;20385;-68
2021/01/05 08:52:24;;;;;;;;;;;;;;;0.08;100.00;101076.81;5104163;28;19966;-68
2021/01/05 08:54:50;;;;;;;;;;;;;;;0.06;100.00;101064.44;5112195;28;19938;-66
2021/01/05 08:57:15;;;;;;;;;;;;;;;0.06;100.00;101072.44;5100239;28;19935;-66
2021/01/05 08:59:41;;;;;;;;;;;;;;;0.05;100.00;101066.19;5103303;28;19924;-66
2021/01/05 09:02:08;;;;;;;;;;;;;;;0.07;100.00;101064.38;5111918;28;19930;-66
2021/01/05 09:04:35;;;;;;;;;;;;;;;0.09;100.00;101069.66;5103112;28;19928;-65
2021/01/05 09:07:01;;;;;;;;;;;;;;;0.09;100.00;101073.19;5091398;28;19924;-66
2021/01/05 09:09:27;;;;;;;;;;;;;;;0.11;100.00;101068.69;5097922;28;20341;-65
2021/01/05 09:11:53;;;;;;;;;;;;;;;0.11;100.00;101071.34;5111895;28;19931;-66
2021/01/05 09:14:19;;;;;;;;;;;;;;;0.12;100.00;101061.53;5107082;28;20451;-66
2021/01/05 09:16:45;;;;;;;;;;;;;;;0.17;100.00;101064.94;5110463;28;19931;-66
2021/01/05 09:19:11;;;;;;;;;;;;;;;0.16;100.00;101058.72;5105664;28;19962;-66
2021/01/05 09:21:37;;;;;;;;;;;;;;;0.18;100.00;101063.16;5091150;28;19935;-66
2021/01/05 09:24:03;;;;;;;;;;;;;;;0.20;100.00;101058.63;5102229;28;19970;-66
2021/01/05 09:26:31;;;;;;;;;;;;;;;0.14;100.00;101063.25;5092759;28;20030;-66
2021/01/05 09:28:57;;;;;;;;;;;;;;;0.18;100.00;101055.16;5091557;28;20385;-66
2021/01/05 09:31:23;;;;;;;;;;;;;;;0.21;100.00;101060.38;5102908;28;20023;-66
2021/01/05 09:33:49;;;;;;;;;;;;;;;0.19;100.00;101059.53;5108831;28;19976;-66
2021/01/05 09:36:15;;;;;;;;;;;;;;;0.21;100.00;101060.38;5095780;28;19959;-66
2021/01/05 09:38:43;;;;;;;;;;;;;;;0.20;100.00;101061.28;5110482;28;19970;-66
2021/01/05 09:41:18;;;;;;;;;;;;;;;0.22;100.00;101054.13;5109427;28;19940;-66
2021/01/05 09:43:44;;;;;;;;;;;;;;;0.23;100.00;101053.16;5110182;28;20020;-66
2021/01/05 09:46:10;;;;;;;;;;;;;;;0.22;100.00;101063.00;5101934;28;19924;-66
2021/01/05 09:48:36;;;;;;;;;;;;;;;0.24;100.00;101055.81;5090469;28;19936;-66
2021/01/05 09:51:02;;;;;;;;;;;;;;;0.24;100.00;101054.94;5106552;28;19977;-67
2021/01/05 09:53:27;;;;;;;;;;;;;;;0.25;100.00;101051.34;5111417;28;19924;-67
2021/01/05 09:55:54;;;;;;;;;;;;;;;0.27;100.00;101054.84;5109757;28;20350;-66
2021/01/05 09:58:20;;;;;;;;;;;;;;;0.26;100.00;101045.94;5108474;28;19967;-66
2021/01/05 10:00:45;;;;;;;;;;;;;;;0.30;100.00;101049.41;5101836;28;19935;-66
2021/01/05 10:03:11;;;;;;;;;;;;;;;0.32;100.00;101050.19;5100492;28;19924;-66
2021/01/05 10:05:37;;;;;;;;;;;;;;;0.30;100.00;101049.41;5114771;28;19928;-66
2021/01/05 10:08:03;;;;;;;;;;;;;;;0.30;100.00;101042.25;5108320;28;19985;-66
2021/01/05 10:10:29;;;;;;;;;;;;;;;0.30;100.00;101041.38;5094198;28;19971;-66
2021/01/05 10:12:55;;;;;;;;;;;;;;;0.34;100.00;101045.69;5101193;28;19981;-66
2021/01/05 10:15:23;;;;;;;;;;;;;;;0.31;100.00;101040.47;5097899;28;20392;-66
2021/01/05 10:17:48;;;;;;;;;;;;;;;0.31;100.00;101038.66;5097247;28;20424;-66
2021/01/05 10:20:16;;;;;;;;;;;;;;;0.34;100.00;101040.34;5114465;28;19924;-66
2021/01/05 10:22:42;;;;;;;;;;;;;;;0.37;100.00;101029.56;5112573;28;20007;-66
2021/01/05 10:25:10;;;;;;;;;;;;;;;0.37;100.00;101034.03;5094318;28;19924;-66
2021/01/05 10:27:35;;;;;;;;;;;;;;;0.40;100.00;101032.16;5095226;28;19935;-66
2021/01/05 10:30:02;;;;;;;;;;;;;;;0.43;100.00;101033.84;5094121;28;19982;-67
2021/01/05 10:32:28;;;;;;;;;;;;;;;0.46;100.00;101031.91;5094141;28;19974;-67
2021/01/05 10:34:54;;;;;;;;;;;;;;;0.46;100.00;101031.91;5113522;28;19924;-67
2021/01/05 10:37:20;;;;;;;;;;;;;;;0.49;100.00;101033.59;5102494;28;20238;-67
2021/01/05 10:39:46;;;;;;;;;;;;;;;0.47;100.00;101031.00;5094011;28;19940;-67
2021/01/05 10:42:11;;;;;;;;;;;;;;;0.48;100.00;101026.50;5102200;28;20450;-67
2021/01/05 10:44:38;;;;;;;;;;;;;;;0.45;100.00;101027.50;5103665;28;19928;-67
2021/01/05 10:47:06;;;;;;;;;;;;;;;0.47;100.00;101031.00;5109816;28;19959;-67
2021/01/05 10:49:32;;;;;;;;;;;;;;;0.48;100.00;101026.50;5113446;28;19989;-67
2021/01/05 10:51:59;;;;;;;;;;;;;;;0.54;100.00;101031.66;5112094;28;19971;-67
2021/01/05 10:54:26;;;;;;;;;;;;;;;0.54;100.00;101028.13;5114067;28;19948;-67
2021/01/05 10:56:55;;;;;;;;;;;;;;;0.50;100.00;101028.22;5110388;28;20019;-66
2021/01/05 10:59:20;;;;;;;;;;;;;;;0.54;100.00;101025.44;5100776;28;19977;-66
2021/01/05 11:01:46;;;;;;;;;;;;;;;0.55;100.00;101027.19;5111461;28;19923;-66
2021/01/05 11:04:13;;;;;;;;;;;;;;;0.56;100.00;101020.91;5094639;28;19931;-67
2021/01/05 11:06:39;;;;;;;;;;;;;;;0.56;100.00;101021.81;5112950;28;20403;-66
2021/01/05 11:09:05;;;;;;;;;;;;;;;0.54;100.00;101015.63;5113542;28;19964;-67
2021/01/05 11:11:31;;;;;;;;;;;;;;;0.59;100.00;101016.34;5112821;28;20018;-66
2021/01/05 11:13:56;;;;;;;;;;;;;;;0.54;100.00;101010.28;5113948;28;19931;-66
2021/01/05 11:16:23;;;;;;;;;;;;;;;0.55;100.00;101006.69;5096446;28;19966;-66
2021/01/05 11:18:48;;;;;;;;;;;;;;;0.55;100.00;100993.34;5093205;28;19960;-67
2021/01/05 11:21:15;;;;;;;;;;;;;;;0.56;100.00;100988.84;5108115;28;19938;-67
2021/01/05 11:23:42;;;;;;;;;;;;;;;0.56;100.00;100984.41;5110979;28;20351;-67
2021/01/05 11:26:08;;;;;;;;;;;;;;;0.57;100.00;100978.09;5092662;28;19963;-67
2021/01/05 11:28:34;;;;;;;;;;;;;;;0.57;100.00;100985.25;5092138;28;20019;-66
2021/01/05 11:31:00;;;;;;;;;;;;;;;0.58;100.00;100984.34;5099268;28;19931;-67
2021/01/05 11:33:25;;;;;;;;;;;;;;;0.62;100.00;100983.31;5111986;28;19934;-67
2021/01/05 11:35:51;;;;;;;;;;;;;;;0.61;100.00;100984.22;5094245;28;19929;-66
2021/01/05 11:38:18;;;;;;;;;;;;;;;0.58;100.00;100981.66;5101911;28;19931;-66
2021/01/05 11:40:44;;;;;;;;;;;;;;;0.60;100.00;100977.13;5092749;28;20422;-66
2021/01/05 11:43:10;;;;;;;;;;;;;;;0.62;100.00;100980.63;5112048;28;19924;-67
2021/01/05 11:45:35;;;;;;;;;;;;;;;0.59;100.00;100975.38;5103457;28;19980;-67
2021/01/05 11:48:01;;;;;;;;;;;;;;;0.59;100.00;100980.72;5112876;28;19934;-67
2021/01/05 11:50:27;;;;;;;;;;;;;;;0.56;100.00;100964.81;5105441;28;19931;-65
2021/01/05 11:52:53;;;;;;;;;;;;;;;0.55;100.00;100971.97;5107449;28;20373;-66
2021/01/05 11:55:19;;;;;;;;;;;;;;;0.57;100.00;100971.91;5112793;28;19924;-66
2021/01/05 11:57:46;;;;;;;;;;;;;;;0.56;100.00;100965.69;5098661;28;20012;-67
2021/01/05 12:00:15;;;;;;;;;;;;;;;0.59;100.00;100962.91;5092593;28;20369;-67
2021/01/05 12:02:41;;;;;;;;;;;;;;;0.58;100.00;100963.81;5104297;28;20389;-67
2021/01/05 12:05:08;;;;;;;;;;;;;;;0.57;100.00;100961.22;5111847;28;19931;-67
2021/01/05 12:07:33;;;;;;;;;;;;;;;0.57;100.00;100964.75;5112319;28;19971;-66
2021/01/05 12:09:59;;;;;;;;;;;;;;;0.56;100.00;100962.13;5111291;28;19985;-67
2021/01/05 12:12:26;;;;;;;;;;;;;;;0.57;100.00;100961.22;5090883;28;19932;-67
2021/01/05 12:14:52;;;;;;;;;;;;;;;0.54;100.00;100964.88;5092319;28;19970;-68
2021/01/05 12:17:18;;;;;;;;;;;;;;;0.55;100.00;100957.72;5107345;28;19932;-68
2021/01/05 12:19:44;;;;;;;;;;;;;;;0.55;100.00;100957.72;5102924;28;20359;-69
2021/01/05 12:22:11;;;;;;;;;;;;;;;0.57;100.00;100961.22;5112051;28;19974;-68
2021/01/05 12:24:38;;;;;;;;;;;;;;;0.54;100.00;100954.19;5111758;28;20019;-68
2021/01/05 12:27:05;;;;;;;;;;;;;;;0.54;100.00;100950.66;5111804;28;19928;-68
2021/01/05 12:29:33;;;;;;;;;;;;;;;0.55;100.00;100957.72;5095995;28;19928;-68
2021/01/05 12:32:00;;;;;;;;;;;;;;;0.54;100.00;100947.97;5091891;28;19924;-68
2021/01/05 12:34:27;;;;;;;;;;;;;;;0.54;100.00;100948.84;5106522;28;19973;-68
2021/01/05 12:36:53;;;;;;;;;;;;;;;0.56;100.00;100959.47;5104001;28;19966;-67
2021/01/05 12:39:20;;;;;;;;;;;;;;;0.54;100.00;100950.66;5093753;28;20356;-68
2021/01/05 12:41:46;;;;;;;;;;;;;;;0.54;100.00;100956.00;5110829;28;20591;-68
2021/01/05 12:44:14;;;;;;;;;;;;;;;0.53;100.00;100955.09;5111296;28;19930;-67